Time;durP1;ratioP1;P1;durP2;ratioP2;P2;SDS_P1;SDS_P2;PMS_P1;PMS_P2;Temp;Humidity;BMP_temperature;BMP_pressure;BME280_temperature;BME280_humidity;BME280_pressure;Samples;Min_cycle;Max_cycle;Signal;HPM_P1;HPM_P2
2023/07/15 00:01:31;;;;;;;11.77;6.45;;;;;;;;;;5028508;28;20037;-61
2023/07/15 00:03:57;;;;;;;7.82;5.80;;;;;;;;;;5047153;28;20039;-60
2023/07/15 00:06:23;;;;;;;10.05;6.70;;;;;;;;;;5044911;28;20450;-63
2023/07/15 00:08:48;;;;;;;10.55;6.40;;;;;;;;;;5026747;28;20139;-62
2023/07/15 00:11:34;;;;;;;9.60;6.70;;;;;;;;;;5034573;28;20127;-62
2023/07/15 00:13:59;;;;;;;11.52;6.53;;;;;;;;;;5046277;28;20450;-62
2023/07/15 00:16:25;;;;;;;11.43;6.32;;;;;;;;;;5047303;28;20044;-60
2023/07/15 00:18:50;;;;;;;7.47;5.72;;;;;;;;;;5052986;28;20063;-62
2023/07/15 00:21:16;;;;;;;7.73;6.07;;;;;;;;;;5045383;28;20045;-62
2023/07/15 00:23:41;;;;;;;10.32;6.68;;;;;;;;;;5026797;28;20045;-62
2023/07/15 00:26:07;;;;;;;8.10;6.27;;;;;;;;;;5029747;28;20075;-61
2023/07/15 00:28:32;;;;;;;10.65;6.82;;;;;;;;;;5027173;28;20279;-63
2023/07/15 00:30:57;;;;;;;10.43;6.28;;;;;;;;;;5046697;28;20041;-62
2023/07/15 00:33:23;;;;;;;11.23;6.60;;;;;;;;;;5043773;28;20119;-60
2023/07/15 00:35:49;;;;;;;9.48;6.00;;;;;;;;;;5027085;28;20300;-62
2023/07/15 00:38:14;;;;;;;8.87;7.07;;;;;;;;;;5041580;28;20509;-62
2023/07/15 00:40:40;;;;;;;11.43;6.50;;;;;;;;;;5045547;28;20295;-62
2023/07/15 00:43:24;;;;;;;12.00;6.00;;;;;;;;;;5028730;28;20283;-62
2023/07/15 00:46:10;;;;;;;9.18;6.30;;;;;;;;;;5026290;28;20081;-62
2023/07/15 00:48:35;;;;;;;9.52;6.95;;;;;;;;;;5042996;28;20067;-61
2023/07/15 00:51:00;;;;;;;8.90;6.72;;;;;;;;;;5046003;28;20068;-62
2023/07/15 00:53:25;;;;;;;9.83;6.50;;;;;;;;;;5033750;28;20105;-61
2023/07/15 00:55:51;;;;;;;8.77;6.40;;;;;;;;;;5045866;28;20275;-62
2023/07/15 00:58:16;;;;;;;8.67;6.37;;;;;;;;;;5032341;28;20959;-63
2023/07/15 01:00:41;;;;;;;13.97;7.10;;;;;;;;;;5029898;28;20136;-60
2023/07/15 01:03:06;;;;;;;8.93;6.37;;;;;;;;;;5026075;28;20277;-59
2023/07/15 01:05:31;;;;;;;8.97;6.63;;;;;;;;;;5025653;28;20307;-62
2023/07/15 01:07:57;;;;;;;10.10;6.43;;;;;;;;;;5018173;28;20329;-63
2023/07/15 01:10:22;;;;;;;8.83;6.13;;;;;;;;;;5045391;28;20164;-61
2023/07/15 01:12:47;;;;;;;8.53;6.73;;;;;;;;;;5028553;28;20824;-62
2023/07/15 01:15:12;;;;;;;8.67;6.27;;;;;;;;;;5025856;28;20477;-63
2023/07/15 01:17:38;;;;;;;8.13;6.07;;;;;;;;;;5039719;28;20055;-59
2023/07/15 01:20:05;;;;;;;9.50;6.25;;;;;;;;;;5041204;28;20329;-62
2023/07/15 01:22:33;;;;;;;9.05;6.90;;;;;;;;;;5045385;28;20033;-62
2023/07/15 01:24:59;;;;;;;9.52;6.55;;;;;;;;;;5026515;28;20045;-60
2023/07/15 01:27:26;;;;;;;9.40;6.37;;;;;;;;;;5043851;28;20040;-61
2023/07/15 01:29:51;;;;;;;11.05;6.57;;;;;;;;;;5043952;28;20299;-62
2023/07/15 01:32:17;;;;;;;9.98;7.25;;;;;;;;;;5045258;28;20033;-61
2023/07/15 01:34:42;;;;;;;10.03;6.77;;;;;;;;;;5044888;28;20033;-62
2023/07/15 01:37:07;;;;;;;10.50;6.57;;;;;;;;;;5046386;28;20781;-61
2023/07/15 01:39:34;;;;;;;8.55;6.55;;;;;;;;;;5031688;28;20319;-61
2023/07/15 01:41:59;;;;;;;11.60;6.80;;;;;;;;;;5048812;28;20127;-61
2023/07/15 01:44:25;;;;;;;9.13;6.53;;;;;;;;;;5049375;28;20187;-62
2023/07/15 01:46:50;;;;;;;8.63;6.45;;;;;;;;;;5049276;28;20295;-60
2023/07/15 01:49:15;;;;;;;9.87;7.23;;;;;;;;;;5047364;28;20036;-62
2023/07/15 01:51:40;;;;;;;7.75;6.47;;;;;;;;;;5049101;28;20299;-63
2023/07/15 01:54:06;;;;;;;9.03;6.77;;;;;;;;;;5049180;28;20033;-63
2023/07/15 01:56:31;;;;;;;9.93;6.93;;;;;;;;;;5027810;28;20303;-62
2023/07/15 01:58:56;;;;;;;9.57;6.50;;;;;;;;;;5031654;28;20276;-62
2023/07/15 02:01:22;;;;;;;9.43;7.07;;;;;;;;;;5038776;28;20029;-62
2023/07/15 02:03:48;;;;;;;9.65;6.88;;;;;;;;;;5049209;28;20037;-62
2023/07/15 02:06:14;;;;;;;9.48;7.07;;;;;;;;;;5031006;28;20046;-62
2023/07/15 02:08:39;;;;;;;11.23;6.90;;;;;;;;;;5039694;28;20386;-60
2023/07/15 02:11:05;;;;;;;8.03;6.33;;;;;;;;;;5030766;28;20029;-61
2023/07/15 02:13:30;;;;;;;9.65;7.57;;;;;;;;;;5049379;28;20281;-59
2023/07/15 02:15:55;;;;;;;9.00;6.30;;;;;;;;;;5034339;28;20427;-59
2023/07/15 02:18:22;;;;;;;11.70;6.73;;;;;;;;;;5041671;28;20292;-60
2023/07/15 02:20:49;;;;;;;9.60;6.95;;;;;;;;;;5033361;28;20379;-60
2023/07/15 02:23:15;;;;;;;11.68;6.88;;;;;;;;;;5048611;28;20135;-59
2023/07/15 02:25:40;;;;;;;8.97;6.70;;;;;;;;;;5039486;28;20230;-59
2023/07/15 02:28:05;;;;;;;10.63;6.68;;;;;;;;;;5033130;28;20823;-61
2023/07/15 02:30:31;;;;;;;10.17;6.93;;;;;;;;;;5047148;28;20544;-60
2023/07/15 02:32:57;;;;;;;12.18;6.65;;;;;;;;;;5048317;28;20335;-61
2023/07/15 02:35:23;;;;;;;11.00;6.97;;;;;;;;;;5048486;28;20028;-59
2023/07/15 02:37:49;;;;;;;9.60;7.22;;;;;;;;;;5046487;28;20098;-61
2023/07/15 02:40:14;;;;;;;9.57;7.30;;;;;;;;;;5028439;28;20160;-58
2023/07/15 02:42:39;;;;;;;10.50;6.90;;;;;;;;;;5046477;28;20060;-59
2023/07/15 02:45:06;;;;;;;10.97;6.93;;;;;;;;;;5043279;28;20134;-60
2023/07/15 02:47:31;;;;;;;9.00;6.90;;;;;;;;;;5043699;28;20793;-62
2023/07/15 02:50:06;;;;;;;8.40;6.43;;;;;;;;;;5028972;28;20048;-58
2023/07/15 02:52:32;;;;;;;8.27;6.97;;;;;;;;;;5042420;28;20025;-60
2023/07/15 02:54:58;;;;;;;8.20;6.63;;;;;;;;;;5044280;28;20021;-61
2023/07/15 02:57:23;;;;;;;10.57;7.25;;;;;;;;;;5036989;28;20082;-59
2023/07/15 02:59:49;;;;;;;8.93;6.97;;;;;;;;;;5031239;28;20029;-62
2023/07/15 03:02:15;;;;;;;11.70;6.97;;;;;;;;;;5042293;28;20040;-61
2023/07/15 03:04:40;;;;;;;9.60;7.10;;;;;;;;;;5047842;28;20045;-60
2023/07/15 03:07:06;;;;;;;9.32;6.82;;;;;;;;;;5048283;28;20052;-59
2023/07/15 03:09:31;;;;;;;11.30;6.47;;;;;;;;;;5040395;28;20037;-62
2023/07/15 03:11:56;;;;;;;10.60;6.75;;;;;;;;;;5047365;28;20744;-60
2023/07/15 03:14:21;;;;;;;9.03;6.70;;;;;;;;;;5047922;28;20038;-60
2023/07/15 03:16:47;;;;;;;9.82;6.88;;;;;;;;;;5040564;28;20718;-60
2023/07/15 03:19:12;;;;;;;11.02;7.18;;;;;;;;;;5048108;28;20029;-59
2023/07/15 03:21:40;;;;;;;8.52;6.78;;;;;;;;;;5047051;28;20584;-59
2023/07/15 03:24:06;;;;;;;10.30;6.57;;;;;;;;;;5047715;28;20495;-61
2023/07/15 03:26:31;;;;;;;11.07;6.90;;;;;;;;;;5040293;28;20120;-59
2023/07/15 03:28:57;;;;;;;11.23;7.67;;;;;;;;;;5045942;28;20628;-61
2023/07/15 03:31:22;;;;;;;11.60;7.90;;;;;;;;;;5048233;28;20025;-61
2023/07/15 03:33:51;;;;;;;10.63;6.73;;;;;;;;;;5049655;28;20032;-61
2023/07/15 03:36:17;;;;;;;10.75;7.60;;;;;;;;;;5047749;28;20381;-61
2023/07/15 03:38:42;;;;;;;10.20;7.43;;;;;;;;;;5029783;28;20032;-63
2023/07/15 03:41:07;;;;;;;10.53;7.00;;;;;;;;;;5047746;28;20511;-60
2023/07/15 03:43:32;;;;;;;11.80;7.57;;;;;;;;;;5047423;28;20336;-62
2023/07/15 03:45:58;;;;;;;9.95;7.30;;;;;;;;;;5040856;28;20288;-62
2023/07/15 03:48:23;;;;;;;10.40;7.13;;;;;;;;;;5047128;28;20060;-61
2023/07/15 03:50:48;;;;;;;10.43;7.27;;;;;;;;;;5028031;28;20288;-62
2023/07/15 03:53:14;;;;;;;11.63;7.70;;;;;;;;;;5028551;28;20063;-60
2023/07/15 03:55:40;;;;;;;8.88;6.97;;;;;;;;;;5037578;28;20037;-61
2023/07/15 03:58:05;;;;;;;12.73;7.32;;;;;;;;;;5047412;28;20107;-60
2023/07/15 04:00:30;;;;;;;9.43;7.23;;;;;;;;;;5032861;28;20032;-60
2023/07/15 04:02:55;;;;;;;10.80;7.10;;;;;;;;;;5047374;28;20574;-62
2023/07/15 04:05:21;;;;;;;10.57;7.90;;;;;;;;;;5027224;28;20674;-60
2023/07/15 04:07:47;;;;;;;11.50;7.37;;;;;;;;;;5049692;28;20691;-62
2023/07/15 04:10:13;;;;;;;10.10;7.10;;;;;;;;;;5034658;28;20296;-62
2023/07/15 04:12:38;;;;;;;10.30;7.40;;;;;;;;;;5042488;28;20068;-62
2023/07/15 04:15:04;;;;;;;9.93;7.90;;;;;;;;;;5050212;28;20033;-62
2023/07/15 04:17:29;;;;;;;11.80;7.53;;;;;;;;;;5056166;28;20032;-64
2023/07/15 04:19:55;;;;;;;9.45;7.55;;;;;;;;;;5053316;28;20086;-61
2023/07/15 04:22:20;;;;;;;10.88;8.05;;;;;;;;;;5053250;28;20132;-64
2023/07/15 04:24:45;;;;;;;11.47;8.20;;;;;;;;;;5058229;28;20045;-62
2023/07/15 04:27:11;;;;;;;11.88;7.93;;;;;;;;;;5043140;28;20045;-61
2023/07/15 04:29:36;;;;;;;12.13;8.23;;;;;;;;;;5044276;28;20107;-62
2023/07/15 04:32:01;;;;;;;12.63;7.73;;;;;;;;;;5046046;28;20430;-62
2023/07/15 04:34:26;;;;;;;13.87;9.27;;;;;;;;;;5045827;28;20401;-62
2023/07/15 04:36:52;;;;;;;11.95;8.55;;;;;;;;;;5043205;28;20297;-61
2023/07/15 04:39:17;;;;;;;12.43;8.37;;;;;;;;;;5045292;28;20482;-61
2023/07/15 04:41:42;;;;;;;14.23;8.43;;;;;;;;;;5048051;28;20565;-61
2023/07/15 04:44:07;;;;;;;13.95;9.02;;;;;;;;;;5047395;28;20453;-61
2023/07/15 04:46:33;;;;;;;13.50;9.23;;;;;;;;;;5043433;28;20068;-61
2023/07/15 04:48:58;;;;;;;15.23;9.07;;;;;;;;;;5008270;28;20576;-60
2023/07/15 04:51:23;;;;;;;12.77;8.60;;;;;;;;;;5044853;28;20330;-60
2023/07/15 04:53:48;;;;;;;15.90;8.50;;;;;;;;;;5044962;28;20333;-62
2023/07/15 04:56:14;;;;;;;13.57;8.20;;;;;;;;;;5041535;28;20995;-64
2023/07/15 04:58:39;;;;;;;12.90;8.63;;;;;;;;;;5025687;28;20342;-62
2023/07/15 05:01:05;;;;;;;12.07;8.40;;;;;;;;;;5042281;28;20515;-62
2023/07/15 05:03:30;;;;;;;12.95;8.05;;;;;;;;;;5045914;28;20262;-62
2023/07/15 05:05:56;;;;;;;11.23;8.18;;;;;;;;;;5044660;28;20048;-61
2023/07/15 05:08:22;;;;;;;11.90;8.55;;;;;;;;;;5026197;28;20041;-62
2023/07/15 05:10:51;;;;;;;10.93;8.10;;;;;;;;;;5047261;28;20445;-62
2023/07/15 05:13:16;;;;;;;13.77;7.85;;;;;;;;;;5044974;28;20112;-59
2023/07/15 05:15:42;;;;;;;12.85;8.88;;;;;;;;;;5044714;28;20048;-61
2023/07/15 05:18:07;;;;;;;16.27;9.27;;;;;;;;;;5044252;28;20116;-61
2023/07/15 05:20:35;;;;;;;13.13;9.13;;;;;;;;;;5041583;28;20099;-61
2023/07/15 05:23:02;;;;;;;12.55;8.48;;;;;;;;;;5053869;28;20114;-62
2023/07/15 05:25:27;;;;;;;14.55;8.10;;;;;;;;;;5055544;28;20118;-60
2023/07/15 05:27:52;;;;;;;11.65;8.48;;;;;;;;;;5027433;28;20089;-59
2023/07/15 05:30:19;;;;;;;12.70;8.90;;;;;;;;;;5041567;28;20052;-64
2023/07/15 05:32:44;;;;;;;14.05;8.77;;;;;;;;;;5045010;28;20029;-60
2023/07/15 05:35:09;;;;;;;16.93;9.13;;;;;;;;;;5045559;28;20463;-60
2023/07/15 05:37:35;;;;;;;11.47;9.40;;;;;;;;;;5044679;28;20348;-60
2023/07/15 05:40:00;;;;;;;14.90;9.07;;;;;;;;;;5040114;28;20275;-59
2023/07/15 05:42:25;;;;;;;14.65;9.55;;;;;;;;;;5041605;28;20033;-59
2023/07/15 05:44:50;;;;;;;14.60;9.20;;;;;;;;;;5042761;28;20060;-59
2023/07/15 05:47:16;;;;;;;13.10;9.20;;;;;;;;;;5042762;28;20283;-59
2023/07/15 05:49:41;;;;;;;14.18;9.75;;;;;;;;;;5025305;28;20033;-60
2023/07/15 05:52:07;;;;;;;13.20;9.53;;;;;;;;;;5043859;28;20052;-59
2023/07/15 05:54:32;;;;;;;15.25;8.88;;;;;;;;;;5044597;28;20291;-58
2023/07/15 05:56:57;;;;;;;12.60;7.80;;;;;;;;;;5044602;28;20499;-60
2023/07/15 05:59:23;;;;;;;13.10;8.85;;;;;;;;;;5044886;28;20470;-60
2023/07/15 06:01:48;;;;;;;13.07;8.90;;;;;;;;;;5035956;28;20044;-61
2023/07/15 06:04:13;;;;;;;13.02;8.85;;;;;;;;;;5044223;28;20032;-59
2023/07/15 06:06:39;;;;;;;12.63;8.80;;;;;;;;;;5026438;28;20045;-63
2023/07/15 06:09:04;;;;;;;15.60;9.33;;;;;;;;;;5039612;28;20033;-62
2023/07/15 06:11:29;;;;;;;15.80;9.20;;;;;;;;;;5033043;28;20420;-62
2023/07/15 06:13:55;;;;;;;15.23;9.37;;;;;;;;;;5043046;28;20283;-61
2023/07/15 06:16:20;;;;;;;13.13;9.27;;;;;;;;;;5040036;28;20276;-61
2023/07/15 06:18:45;;;;;;;13.82;9.82;;;;;;;;;;5025410;28;20025;-62
2023/07/15 06:21:10;;;;;;;13.33;10.00;;;;;;;;;;5038978;28;20033;-62
2023/07/15 06:23:36;;;;;;;12.73;9.60;;;;;;;;;;5042624;28;20025;-62
2023/07/15 06:26:01;;;;;;;14.02;8.77;;;;;;;;;;5048158;28;20367;-63
2023/07/15 06:28:27;;;;;;;14.50;9.17;;;;;;;;;;5047104;28;20368;-62
2023/07/15 06:31:06;;;;;;;14.45;9.23;;;;;;;;;;5045784;28;20346;-62
2023/07/15 06:33:32;;;;;;;15.73;8.85;;;;;;;;;;5041915;28;20037;-62
2023/07/15 06:35:58;;;;;;;13.25;9.50;;;;;;;;;;5040680;28;20037;-61
2023/07/15 06:38:23;;;;;;;14.30;9.25;;;;;;;;;;5040189;28;20029;-62
2023/07/15 06:40:48;;;;;;;11.60;9.37;;;;;;;;;;5038667;28;20190;-59
2023/07/15 06:43:13;;;;;;;14.67;9.67;;;;;;;;;;5039023;28;20847;-61
2023/07/15 06:45:39;;;;;;;13.63;9.47;;;;;;;;;;5040557;28;20053;-61
2023/07/15 06:48:04;;;;;;;14.45;10.88;;;;;;;;;;5037720;28;20323;-61
2023/07/15 06:50:29;;;;;;;13.93;10.15;;;;;;;;;;5037463;28;20045;-60
2023/07/15 06:52:54;;;;;;;13.68;9.70;;;;;;;;;;5036550;28;20033;-59
2023/07/15 06:55:21;;;;;;;13.27;9.17;;;;;;;;;;5020532;28;20376;-62
2023/07/15 06:57:46;;;;;;;13.63;9.43;;;;;;;;;;5038989;28;20302;-62
2023/07/15 07:00:11;;;;;;;13.43;8.90;;;;;;;;;;5037920;28;20032;-61
2023/07/15 07:02:37;;;;;;;14.98;10.23;;;;;;;;;;5037644;28;20057;-62
2023/07/15 07:05:02;;;;;;;12.23;9.33;;;;;;;;;;5039457;28;20036;-60
2023/07/15 07:07:27;;;;;;;14.83;9.37;;;;;;;;;;5038594;28;20044;-61
2023/07/15 07:09:52;;;;;;;12.63;9.23;;;;;;;;;;5038389;28;20821;-60
2023/07/15 07:12:18;;;;;;;13.20;9.40;;;;;;;;;;5039642;28;20615;-63
2023/07/15 07:14:43;;;;;;;12.85;8.02;;;;;;;;;;5017022;28;20295;-64
2023/07/15 07:17:08;;;;;;;12.52;8.85;;;;;;;;;;5037887;28;20037;-60
2023/07/15 07:19:33;;;;;;;15.70;8.50;;;;;;;;;;5039070;28;20886;-63
2023/07/15 07:21:59;;;;;;;13.67;9.33;;;;;;;;;;5036371;28;20333;-62
2023/07/15 07:24:24;;;;;;;11.52;8.50;;;;;;;;;;5038557;28;20134;-59
2023/07/15 07:26:50;;;;;;;13.02;9.25;;;;;;;;;;5019723;28;20208;-65
2023/07/15 07:29:16;;;;;;;13.88;8.70;;;;;;;;;;5037298;28;20044;-65
2023/07/15 07:31:41;;;;;;;10.77;8.70;;;;;;;;;;5037423;28;20106;-62
2023/07/15 07:34:06;;;;;;;10.60;8.50;;;;;;;;;;5037581;28;20085;-63
2023/07/15 07:36:32;;;;;;;11.90;9.10;;;;;;;;;;5038659;28;20036;-63
2023/07/15 07:38:57;;;;;;;13.60;9.23;;;;;;;;;;5037773;28;20033;-63
2023/07/15 07:41:22;;;;;;;12.77;8.52;;;;;;;;;;5036541;28;20712;-59
2023/07/15 07:43:47;;;;;;;12.60;8.40;;;;;;;;;;5037335;28;20063;-58
2023/07/15 07:46:13;;;;;;;13.10;8.50;;;;;;;;;;5037415;28;20490;-58
2023/07/15 07:48:38;;;;;;;12.00;8.60;;;;;;;;;;5036625;28;20056;-58
2023/07/15 07:51:04;;;;;;;10.85;8.50;;;;;;;;;;5036921;28;20743;-57
2023/07/15 07:53:29;;;;;;;14.80;8.65;;;;;;;;;;5037725;28;20052;-57
2023/07/15 07:55:54;;;;;;;15.50;8.68;;;;;;;;;;5039060;28;20496;-57
2023/07/15 07:58:19;;;;;;;11.35;8.15;;;;;;;;;;5035846;28;20127;-57
2023/07/15 08:00:45;;;;;;;11.85;8.57;;;;;;;;;;5038451;28;20049;-57
2023/07/15 08:03:10;;;;;;;11.83;8.17;;;;;;;;;;5039160;28;20099;-57
2023/07/15 08:05:42;;;;;;;11.10;8.00;;;;;;;;;;5037551;28;20305;-57
2023/07/15 08:08:08;;;;;;;10.98;7.80;;;;;;;;;;5035590;28;20422;-56
2023/07/15 08:10:33;;;;;;;12.75;8.15;;;;;;;;;;5018459;28;20039;-59
2023/07/15 08:12:58;;;;;;;12.77;7.67;;;;;;;;;;5038349;28;20761;-58
2023/07/15 08:15:23;;;;;;;11.02;7.82;;;;;;;;;;5038224;28;20418;-61
2023/07/15 08:17:49;;;;;;;11.03;7.60;;;;;;;;;;5019127;28;20124;-57
2023/07/15 08:20:14;;;;;;;9.93;7.70;;;;;;;;;;5036008;28;20352;-60
2023/07/15 08:22:39;;;;;;;10.73;7.17;;;;;;;;;;5034926;28;20306;-57
2023/07/15 08:25:05;;;;;;;10.00;7.35;;;;;;;;;;5036949;28;20877;-57
2023/07/15 08:27:30;;;;;;;9.88;7.82;;;;;;;;;;5036159;28;20044;-57
2023/07/15 08:29:55;;;;;;;9.38;7.38;;;;;;;;;;5042802;28;20062;-57
2023/07/15 08:32:20;;;;;;;9.88;7.80;;;;;;;;;;5038695;28;20025;-57
2023/07/15 08:35:04;;;;;;;8.95;7.15;;;;;;;;;;5038139;28;20816;-57
2023/07/15 08:37:29;;;;;;;10.48;7.72;;;;;;;;;;5017287;28;20140;-57
2023/07/15 08:39:54;;;;;;;9.52;7.45;;;;;;;;;;5035558;28;20128;-57
2023/07/15 08:42:20;;;;;;;9.98;6.70;;;;;;;;;;5035265;28;20059;-59
2023/07/15 08:44:49;;;;;;;10.20;7.05;;;;;;;;;;5037416;28;20533;-59
2023/07/15 08:47:17;;;;;;;8.95;6.80;;;;;;;;;;5035268;28;20119;-58
2023/07/15 08:49:43;;;;;;;9.68;6.68;;;;;;;;;;5034896;28;20029;-58
2023/07/15 08:52:08;;;;;;;9.87;6.77;;;;;;;;;;5036590;28;20043;-58
2023/07/15 08:54:33;;;;;;;7.75;6.60;;;;;;;;;;5035669;28;20283;-58
2023/07/15 08:56:58;;;;;;;9.87;6.77;;;;;;;;;;5035757;28;20033;-58
2023/07/15 08:59:24;;;;;;;9.55;6.75;;;;;;;;;;5018279;28;20709;-57
2023/07/15 09:01:50;;;;;;;8.30;6.13;;;;;;;;;;5034427;28;20036;-60
2023/07/15 09:04:15;;;;;;;7.97;6.18;;;;;;;;;;5034864;28;20029;-60
2023/07/15 09:06:40;;;;;;;8.73;6.50;;;;;;;;;;5017105;28;20044;-60
2023/07/15 09:09:06;;;;;;;10.57;6.03;;;;;;;;;;5035177;28;20894;-60
2023/07/15 09:11:39;;;;;;;9.35;6.35;;;;;;;;;;5035583;28;20374;-60
2023/07/15 09:14:22;;;;;;;8.43;6.60;;;;;;;;;;5036422;28;20597;-60
2023/07/15 09:16:48;;;;;;;9.70;6.25;;;;;;;;;;5034242;28;20072;-58
2023/07/15 09:19:13;;;;;;;9.40;5.97;;;;;;;;;;5016824;28;20435;-58
2023/07/15 09:21:39;;;;;;;8.20;6.28;;;;;;;;;;5035444;28;20037;-60
2023/07/15 09:24:04;;;;;;;9.20;6.00;;;;;;;;;;5016949;28;20021;-60
2023/07/15 09:26:30;;;;;;;10.43;6.40;;;;;;;;;;5016163;28;20784;-58
2023/07/15 09:28:55;;;;;;;7.38;6.32;;;;;;;;;;5035503;28;21061;-57
2023/07/15 09:31:24;;;;;;;7.77;6.07;;;;;;;;;;5037100;28;20108;-57
2023/07/15 09:33:49;;;;;;;8.38;5.28;;;;;;;;;;5038286;28;20295;-57
2023/07/15 09:36:14;;;;;;;7.70;5.97;;;;;;;;;;5040598;28;20473;-57
2023/07/15 09:38:40;;;;;;;15.10;10.30;;;;;;;;;;5036485;28;20267;-58
2023/07/15 09:41:05;;;;;;;18.87;13.00;;;;;;;;;;5034349;28;20878;-57
2023/07/15 09:43:50;;;;;;;21.17;12.48;;;;;;;;;;5035342;28;20299;-58
2023/07/15 09:46:16;;;;;;;15.35;10.95;;;;;;;;;;5036178;28;20423;-57
2023/07/15 09:48:43;;;;;;;15.40;10.52;;;;;;;;;;5037050;28;20071;-57
2023/07/15 09:51:12;;;;;;;15.32;10.30;;;;;;;;;;5015025;28;20036;-57
2023/07/15 09:53:38;;;;;;;13.02;8.93;;;;;;;;;;5012736;28;20661;-59
2023/07/15 09:56:04;;;;;;;13.07;8.77;;;;;;;;;;4996379;28;20461;-58
2023/07/15 09:58:29;;;;;;;11.93;8.50;;;;;;;;;;5022790;28;20029;-58
2023/07/15 10:01:04;;;;;;;11.53;7.70;;;;;;;;;;5039839;28;20413;-58
2023/07/15 10:03:32;;;;;;;12.27;7.88;;;;;;;;;;5038055;28;21069;-58
2023/07/15 10:05:57;;;;;;;10.65;7.13;;;;;;;;;;5039667;28;20270;-58
2023/07/15 10:08:23;;;;;;;11.85;7.50;;;;;;;;;;5021814;28;20178;-58
2023/07/15 10:10:48;;;;;;;8.90;6.50;;;;;;;;;;5041015;28;20074;-58
2023/07/15 10:13:14;;;;;;;10.10;6.88;;;;;;;;;;5037455;28;20294;-58
2023/07/15 10:15:39;;;;;;;9.65;6.65;;;;;;;;;;5039069;28;20506;-58
2023/07/15 10:18:16;;;;;;;9.30;7.05;;;;;;;;;;5038899;28;20037;-59
2023/07/15 10:20:42;;;;;;;8.80;6.40;;;;;;;;;;5039590;28;20024;-59
2023/07/15 10:23:08;;;;;;;9.00;6.45;;;;;;;;;;5037682;28;20037;-57
2023/07/15 10:25:33;;;;;;;9.07;6.35;;;;;;;;;;5037659;28;20045;-59
2023/07/15 10:28:08;;;;;;;7.87;6.07;;;;;;;;;;5038564;28;20490;-58
2023/07/15 10:30:34;;;;;;;8.05;5.97;;;;;;;;;;5019651;28;20290;-62
2023/07/15 10:33:05;;;;;;;8.05;5.70;;;;;;;;;;5019302;28;20037;-59
2023/07/15 10:35:31;;;;;;;7.43;5.95;;;;;;;;;;5039048;28;20364;-58
2023/07/15 10:38:15;;;;;;;8.45;6.07;;;;;;;;;;5038218;28;20065;-58
2023/07/15 10:40:46;;;;;;;7.32;5.57;;;;;;;;;;5038918;28;20029;-58
2023/07/15 10:43:11;;;;;;;7.28;5.57;;;;;;;;;;5015305;28;20029;-59
2023/07/15 10:45:43;;;;;;;7.63;5.90;;;;;;;;;;5037176;28;20117;-58
2023/07/15 10:48:08;;;;;;;7.30;5.63;;;;;;;;;;5039048;28;20279;-58
2023/07/15 10:50:35;;;;;;;7.65;5.60;;;;;;;;;;5037395;28;20061;-58
2023/07/15 10:53:22;;;;;;;7.43;5.53;;;;;;;;;;5019400;28;20127;-58
2023/07/15 10:55:54;;;;;;;7.35;5.40;;;;;;;;;;5037984;28;20075;-59
2023/07/15 10:58:20;;;;;;;6.68;5.53;;;;;;;;;;5038772;28;20028;-58
2023/07/15 11:00:45;;;;;;;6.20;5.18;;;;;;;;;;5038515;28;20041;-58
2023/07/15 11:03:11;;;;;;;6.93;5.60;;;;;;;;;;5037074;28;20045;-58
2023/07/15 11:05:36;;;;;;;7.32;5.22;;;;;;;;;;5037868;28;20299;-59
2023/07/15 11:08:04;;;;;;;7.53;5.60;;;;;;;;;;5038788;28;20039;-57
2023/07/15 11:10:33;;;;;;;7.60;5.40;;;;;;;;;;5036307;28;20035;-58
2023/07/15 11:13:09;;;;;;;9.57;5.68;;;;;;;;;;5037708;28;20045;-58
2023/07/15 11:15:35;;;;;;;8.13;5.90;;;;;;;;;;5037207;28;20980;-58
2023/07/15 11:18:01;;;;;;;7.10;5.40;;;;;;;;;;5037964;28;20033;-58
2023/07/15 11:20:26;;;;;;;7.55;5.38;;;;;;;;;;5037734;28;20237;-59
2023/07/15 11:22:51;;;;;;;7.00;4.93;;;;;;;;;;5040207;28;20029;-59
2023/07/15 11:25:17;;;;;;;8.70;5.33;;;;;;;;;;5019225;28;20145;-59
2023/07/15 11:27:42;;;;;;;6.78;5.43;;;;;;;;;;5037311;28;20060;-60
2023/07/15 11:30:09;;;;;;;6.43;5.00;;;;;;;;;;5036248;28;20226;-59
2023/07/15 11:32:34;;;;;;;6.40;5.15;;;;;;;;;;5021362;28;20851;-60
2023/07/15 11:35:01;;;;;;;6.83;5.00;;;;;;;;;;5037708;28;20033;-61
2023/07/15 11:37:26;;;;;;;6.93;5.38;;;;;;;;;;5018613;28;20349;-60
2023/07/15 11:39:51;;;;;;;8.07;5.60;;;;;;;;;;5040311;28;20608;-62
2023/07/15 11:42:16;;;;;;;6.90;5.30;;;;;;;;;;5039587;28;20399;-61
2023/07/15 11:44:42;;;;;;;6.07;5.37;;;;;;;;;;5018812;28;20056;-61
2023/07/15 11:47:07;;;;;;;7.50;5.40;;;;;;;;;;5024605;28;20045;-59
2023/07/15 11:49:41;;;;;;;6.93;5.10;;;;;;;;;;5025827;28;20898;-60
2023/07/15 11:52:06;;;;;;;6.78;5.00;;;;;;;;;;5024634;28;20025;-60
2023/07/15 11:54:31;;;;;;;5.77;4.67;;;;;;;;;;5042335;28;20075;-60
2023/07/15 11:56:57;;;;;;;7.60;5.23;;;;;;;;;;5038496;28;20716;-60
2023/07/15 11:59:26;;;;;;;7.10;5.13;;;;;;;;;;5038171;28;20383;-61
2023/07/15 12:01:52;;;;;;;7.45;5.05;;;;;;;;;;5037435;28;20893;-61
2023/07/15 12:04:19;;;;;;;6.05;4.68;;;;;;;;;;5036517;28;20178;-61
2023/07/15 12:06:52;;;;;;;7.57;5.07;;;;;;;;;;5036968;28;20037;-60
2023/07/15 12:09:18;;;;;;;6.65;4.88;;;;;;;;;;5037138;28;20040;-60
2023/07/15 12:11:43;;;;;;;6.53;4.97;;;;;;;;;;5036782;28;20506;-61
2023/07/15 12:14:08;;;;;;;5.35;4.28;;;;;;;;;;5036372;28;20044;-60
2023/07/15 12:16:34;;;;;;;5.93;4.47;;;;;;;;;;5035348;28;20033;-60
2023/07/15 12:19:00;;;;;;;6.00;4.80;;;;;;;;;;5037463;28;20624;-60
2023/07/15 12:21:25;;;;;;;5.60;4.72;;;;;;;;;;5034481;28;20040;-61
2023/07/15 12:23:51;;;;;;;5.63;4.60;;;;;;;;;;5035650;28;20086;-61
2023/07/15 12:26:19;;;;;;;5.65;4.80;;;;;;;;;;5037012;28;20537;-60
2023/07/15 12:28:44;;;;;;;5.55;4.45;;;;;;;;;;5036340;28;20060;-60
2023/07/15 12:31:09;;;;;;;6.30;4.90;;;;;;;;;;5036815;28;20057;-60
2023/07/15 12:33:35;;;;;;;7.23;5.10;;;;;;;;;;5036650;28;20086;-60
2023/07/15 12:36:01;;;;;;;6.15;4.65;;;;;;;;;;5036417;28;20040;-61
2023/07/15 12:38:26;;;;;;;6.53;4.55;;;;;;;;;;5038049;28;20439;-61
2023/07/15 12:40:51;;;;;;;7.28;5.05;;;;;;;;;;5037211;28;20068;-61
2023/07/15 12:43:17;;;;;;;5.13;4.40;;;;;;;;;;5036837;28;20070;-61
2023/07/15 12:45:42;;;;;;;5.72;4.40;;;;;;;;;;5033902;28;20410;-61
2023/07/15 12:48:07;;;;;;;7.37;4.83;;;;;;;;;;5037698;28;20048;-60
2023/07/15 12:50:32;;;;;;;5.97;4.53;;;;;;;;;;5037510;28;20029;-60
2023/07/15 12:52:58;;;;;;;5.50;4.90;;;;;;;;;;5033798;28;20656;-61
2023/07/15 12:55:23;;;;;;;5.65;4.45;;;;;;;;;;5036591;28;20041;-61
2023/07/15 12:57:49;;;;;;;5.63;4.30;;;;;;;;;;5035210;28;20072;-60
2023/07/15 13:00:14;;;;;;;5.85;4.20;;;;;;;;;;5036265;28;20082;-60
2023/07/15 13:02:40;;;;;;;5.40;4.28;;;;;;;;;;5035084;28;20441;-61
2023/07/15 13:05:05;;;;;;;5.45;4.38;;;;;;;;;;5034641;28;20033;-60
2023/07/15 13:07:30;;;;;;;5.65;4.55;;;;;;;;;;5019106;28;20107;-61
2023/07/15 13:09:56;;;;;;;6.03;4.37;;;;;;;;;;5036525;28;20037;-61
2023/07/15 13:12:21;;;;;;;6.05;4.47;;;;;;;;;;5037218;28;20295;-61
2023/07/15 13:14:46;;;;;;;5.60;4.47;;;;;;;;;;5034248;28;20515;-60
2023/07/15 13:17:12;;;;;;;6.03;5.00;;;;;;;;;;5035046;28;20464;-60
2023/07/15 13:19:37;;;;;;;6.93;4.88;;;;;;;;;;5035340;28;20555;-61
2023/07/15 13:22:02;;;;;;;5.32;4.00;;;;;;;;;;5038360;28;20040;-61
2023/07/15 13:24:28;;;;;;;5.55;4.20;;;;;;;;;;5033479;28;20051;-61
2023/07/15 13:26:53;;;;;;;6.53;4.70;;;;;;;;;;5035249;28;20049;-61
2023/07/15 13:29:18;;;;;;;5.73;4.40;;;;;;;;;;5039338;28;20113;-61
2023/07/15 13:31:43;;;;;;;7.37;4.80;;;;;;;;;;5034797;28;21128;-60
2023/07/15 13:34:09;;;;;;;5.80;4.60;;;;;;;;;;5036085;28;21561;-60
2023/07/15 13:36:34;;;;;;;5.55;4.07;;;;;;;;;;5033534;28;20451;-61
2023/07/15 13:38:59;;;;;;;4.95;3.97;;;;;;;;;;5033590;28;20032;-60
2023/07/15 13:41:25;;;;;;;5.63;4.70;;;;;;;;;;5039771;28;20439;-60
2023/07/15 13:43:50;;;;;;;4.75;4.05;;;;;;;;;;5034567;28;20037;-61
2023/07/15 13:46:15;;;;;;;5.75;4.35;;;;;;;;;;5034180;28;20084;-61
2023/07/15 13:48:40;;;;;;;5.28;4.30;;;;;;;;;;5036115;28;20194;-59
2023/07/15 13:51:06;;;;;;;5.10;4.10;;;;;;;;;;5023896;28;20424;-60
2023/07/15 13:53:31;;;;;;;6.53;4.50;;;;;;;;;;5037688;28;20321;-60
2023/07/15 13:55:56;;;;;;;5.70;4.65;;;;;;;;;;5035838;28;20292;-59
2023/07/15 13:58:22;;;;;;;5.70;4.35;;;;;;;;;;5037326;28;20033;-59
2023/07/15 14:00:48;;;;;;;6.80;4.73;;;;;;;;;;5036462;28;20071;-59
2023/07/15 14:03:13;;;;;;;6.07;4.65;;;;;;;;;;5037395;28;20322;-59
2023/07/15 14:05:38;;;;;;;5.53;4.38;;;;;;;;;;5035142;28;20049;-62
2023/07/15 14:08:04;;;;;;;5.60;4.33;;;;;;;;;;5038275;28;20036;-59
2023/07/15 14:10:29;;;;;;;6.03;4.10;;;;;;;;;;5038738;28;20298;-60
2023/07/15 14:12:54;;;;;;;6.30;4.50;;;;;;;;;;5035894;28;20610;-59
2023/07/15 14:15:19;;;;;;;5.10;3.90;;;;;;;;;;5035240;28;20030;-60
2023/07/15 14:17:44;;;;;;;5.33;4.27;;;;;;;;;;5037248;28;20322;-61
2023/07/15 14:20:10;;;;;;;7.23;4.50;;;;;;;;;;5037584;28;20662;-60
2023/07/15 14:22:35;;;;;;;6.25;4.47;;;;;;;;;;5019240;28;20337;-60
2023/07/15 14:25:01;;;;;;;4.83;4.20;;;;;;;;;;5035640;28;20048;-61
2023/07/15 14:27:27;;;;;;;5.35;4.07;;;;;;;;;;5035809;28;20304;-62
2023/07/15 14:29:52;;;;;;;5.97;4.28;;;;;;;;;;5035597;28;20033;-60